Time;durP1;ratioP1;P1;durP2;ratioP2;P2;SDS_P1;SDS_P2;PMS_P1;PMS_P2;Temp;Humidity;BMP_temperature;BMP_pressure;BME280_temperature;BME280_humidity;BME280_pressure;Samples;Min_cycle;Max_cycle;Signal;HPM_P1;HPM_P2
2022/07/26 00:00:13;;;;;;;8.05;2.00;;;20.00;99.90;;;;;;4974216;28;20758;-67
2022/07/26 00:02:40;;;;;;;5.57;2.00;;;19.90;99.90;;;;;;4973386;28;20400;-68
2022/07/26 00:05:06;;;;;;;7.45;2.28;;;19.90;99.90;;;;;;4975681;28;20117;-70
2022/07/26 00:07:31;;;;;;;7.72;2.05;;;19.90;99.90;;;;;;4975246;28;20411;-67
2022/07/26 00:09:57;;;;;;;5.63;1.90;;;20.00;99.90;;;;;;4973749;28;20031;-71
2022/07/26 00:12:23;;;;;;;8.40;2.28;;;20.00;99.90;;;;;;4973989;28;20345;-67
2022/07/26 00:14:48;;;;;;;9.52;2.17;;;20.00;99.90;;;;;;4975351;28;20373;-67
2022/07/26 00:17:14;;;;;;;5.10;2.05;;;20.00;99.90;;;;;;4975196;28;20417;-70
2022/07/26 00:19:40;;;;;;;5.40;2.28;;;20.00;99.90;;;;;;4975213;28;20321;-67
2022/07/26 00:24:49;;;;;;;9.40;1.80;;;20.00;99.90;;;;;;4974795;28;20483;-67
2022/07/26 00:27:15;;;;;;;10.70;2.20;;;20.00;99.90;;;;;;4975027;28;20023;-67
2022/07/26 00:29:40;;;;;;;6.97;1.80;;;20.00;99.90;;;;;;4974523;28;20440;-67
2022/07/26 00:32:06;;;;;;;5.15;1.73;;;19.90;99.90;;;;;;4974731;28;20070;-67
2022/07/26 00:34:31;;;;;;;4.65;1.83;;;20.00;99.90;;;;;;4974748;28;20117;-68
2022/07/26 00:36:57;;;;;;;9.10;1.85;;;19.90;99.90;;;;;;4974757;28;20023;-70
2022/07/26 00:39:23;;;;;;;5.00;1.77;;;19.90;99.90;;;;;;4974642;28;20023;-70
2022/07/26 00:41:49;;;;;;;9.95;2.30;;;19.90;99.90;;;;;;4974761;28;20026;-67
2022/07/26 00:44:15;;;;;;;5.07;1.45;;;19.90;99.90;;;;;;4974653;28;20027;-69
2022/07/26 00:46:42;;;;;;;5.90;2.25;;;19.80;99.90;;;;;;4974239;28;20045;-66
2022/07/26 00:49:08;;;;;;;8.23;1.80;;;19.80;99.90;;;;;;4973335;28;20042;-67
2022/07/26 00:51:34;;;;;;;8.10;1.70;;;19.70;99.90;;;;;;4974677;28;20031;-68
2022/07/26 00:54:00;;;;;;;13.60;1.98;;;19.70;99.90;;;;;;4974403;28;20121;-67
2022/07/26 00:56:26;;;;;;;6.03;1.90;;;19.60;99.90;;;;;;4974358;28;20096;-68
2022/07/26 00:58:52;;;;;;;7.95;1.73;;;19.60;99.90;;;;;;4973775;28;20128;-68
2022/07/26 01:01:18;;;;;;;6.32;1.60;;;19.50;99.90;;;;;;4974318;28;20101;-67
2022/07/26 01:03:44;;;;;;;6.82;1.50;;;19.40;99.90;;;;;;4974375;28;20101;-67
2022/07/26 01:06:10;;;;;;;3.85;1.42;;;19.40;99.90;;;;;;4974540;28;20051;-66
2022/07/26 01:08:36;;;;;;;7.85;1.70;;;19.30;99.90;;;;;;4974265;28;20073;-68
2022/07/26 01:11:01;;;;;;;6.40;1.75;;;19.20;99.90;;;;;;4974533;28;20030;-67
2022/07/26 01:13:27;;;;;;;9.40;2.10;;;19.20;99.90;;;;;;4972520;28;20109;-67
2022/07/26 01:15:53;;;;;;;10.27;2.30;;;19.20;99.90;;;;;;4973974;28;20115;-67
2022/07/26 01:18:18;;;;;;;5.72;1.80;;;19.20;99.90;;;;;;4974253;28;20034;-69
2022/07/26 01:20:44;;;;;;;8.70;2.45;;;19.10;99.90;;;;;;4973873;28;20031;-67
2022/07/26 01:23:10;;;;;;;3.38;1.83;;;19.10;99.90;;;;;;4973715;28;20075;-66
2022/07/26 01:25:37;;;;;;;10.50;1.80;;;19.10;99.90;;;;;;4973854;28;20081;-67
2022/07/26 01:28:04;;;;;;;7.10;1.83;;;19.00;99.90;;;;;;4973912;28;20050;-67
2022/07/26 01:30:29;;;;;;;8.43;2.45;;;19.00;99.90;;;;;;4973794;28;20023;-70
2022/07/26 01:32:55;;;;;;;6.10;1.95;;;19.00;99.90;;;;;;4973714;28;20066;-68
2022/07/26 01:35:21;;;;;;;9.57;1.90;;;18.90;99.90;;;;;;4972447;28;20031;-69
2022/07/26 01:37:46;;;;;;;6.20;2.03;;;18.90;99.90;;;;;;4973309;28;20449;-67
2022/07/26 01:40:13;;;;;;;6.90;1.70;;;18.90;99.90;;;;;;4972597;28;20045;-67
2022/07/26 01:42:39;;;;;;;8.02;1.67;;;18.80;99.90;;;;;;4970942;28;20077;-70
2022/07/26 01:45:10;;;;;;;9.38;2.13;;;18.80;99.90;;;;;;4969922;28;20018;-67
2022/07/26 01:47:37;;;;;;;6.10;1.95;;;18.80;99.90;;;;;;4972015;28;20054;-66
2022/07/26 01:50:05;;;;;;;3.30;1.63;;;18.70;99.90;;;;;;4971578;28;20038;-67
2022/07/26 01:52:30;;;;;;;10.68;2.20;;;18.70;99.90;;;;;;4972227;28;20019;-67
2022/07/26 01:54:56;;;;;;;8.27;1.77;;;18.70;99.90;;;;;;4972257;28;20046;-67
2022/07/26 01:57:21;;;;;;;7.63;1.90;;;18.70;99.90;;;;;;4972424;28;20087;-68
2022/07/26 01:59:47;;;;;;;7.38;1.95;;;18.60;99.90;;;;;;4972430;28;20078;-68
2022/07/26 02:02:12;;;;;;;11.20;2.00;;;18.70;99.90;;;;;;4972811;28;20039;-67
2022/07/26 02:07:22;;;;;;;7.20;1.83;;;18.60;99.90;;;;;;4972097;28;20522;-67
2022/07/26 02:09:48;;;;;;;7.30;2.10;;;18.60;99.90;;;;;;4973130;28;20154;-66
2022/07/26 02:12:13;;;;;;;12.60;2.08;;;18.60;99.90;;;;;;4973060;28;20479;-70
2022/07/26 02:14:39;;;;;;;7.05;1.98;;;18.60;99.90;;;;;;4973166;28;20169;-67
2022/07/26 02:17:05;;;;;;;7.18;2.10;;;18.60;99.90;;;;;;4970615;28;20023;-67
2022/07/26 02:19:31;;;;;;;8.73;2.33;;;18.70;99.90;;;;;;4972508;28;20109;-66
2022/07/26 02:21:57;;;;;;;6.30;1.73;;;18.70;99.90;;;;;;4971392;28;20062;-67
2022/07/26 02:24:26;;;;;;;6.40;1.92;;;18.80;99.90;;;;;;4973102;28;20023;-70
2022/07/26 02:26:51;;;;;;;5.15;1.80;;;18.80;99.90;;;;;;4971924;28;20031;-67
2022/07/26 02:29:17;;;;;;;7.45;1.95;;;18.80;99.90;;;;;;4971907;28;20031;-67
2022/07/26 02:31:42;;;;;;;7.22;2.00;;;18.80;99.90;;;;;;4973272;28;20108;-68
2022/07/26 02:34:08;;;;;;;9.00;2.20;;;18.70;99.90;;;;;;4973169;28;20035;-67
2022/07/26 02:36:33;;;;;;;5.63;2.20;;;18.60;99.90;;;;;;4973148;28;20022;-68
2022/07/26 02:38:59;;;;;;;4.13;2.08;;;18.60;99.90;;;;;;4972917;28;20038;-67
2022/07/26 02:41:24;;;;;;;6.28;2.30;;;18.50;99.90;;;;;;4973175;28;20078;-70
2022/07/26 02:43:50;;;;;;;8.43;2.40;;;18.50;99.90;;;;;;4973142;28;20019;-70
2022/07/26 02:46:15;;;;;;;8.95;2.38;;;18.40;99.90;;;;;;4971454;28;20051;-67
2022/07/26 02:48:41;;;;;;;5.97;2.40;;;18.30;99.90;;;;;;4973059;28;20034;-67
2022/07/26 02:51:07;;;;;;;8.02;2.17;;;18.30;99.90;;;;;;4971817;28;20130;-68
2022/07/26 02:53:32;;;;;;;6.53;2.25;;;18.30;99.90;;;;;;4972790;28;20039;-67
2022/07/26 02:55:58;;;;;;;5.85;2.33;;;18.30;99.90;;;;;;4973066;28;20022;-67
2022/07/26 02:58:25;;;;;;;7.90;2.53;;;18.40;99.90;;;;;;4972834;28;20023;-68
2022/07/26 03:00:51;;;;;;;6.57;2.33;;;18.40;99.90;;;;;;4973258;28;20066;-70
2022/07/26 03:03:17;;;;;;;4.60;2.10;;;18.50;99.90;;;;;;4976603;28;20065;-67
2022/07/26 03:05:43;;;;;;;5.88;2.47;;;18.50;99.90;;;;;;4976677;28;20376;-67
2022/07/26 03:08:09;;;;;;;9.75;2.50;;;18.50;99.90;;;;;;4976244;28;20019;-69
2022/07/26 03:10:34;;;;;;;6.40;2.20;;;18.60;99.90;;;;;;4976293;28;20030;-67
2022/07/26 03:13:00;;;;;;;9.90;2.72;;;18.70;99.90;;;;;;4976064;28;20030;-67
2022/07/26 03:15:25;;;;;;;10.45;2.80;;;18.70;99.90;;;;;;4976414;28;20369;-68
2022/07/26 03:17:51;;;;;;;11.60;2.80;;;18.70;99.90;;;;;;4976440;28;20338;-67
2022/07/26 03:20:16;;;;;;;10.48;3.10;;;18.70;99.90;;;;;;4976531;28;20652;-67
2022/07/26 03:22:42;;;;;;;12.45;2.63;;;18.80;99.90;;;;;;4976324;28;20043;-69
2022/07/26 03:25:08;;;;;;;10.02;3.17;;;18.70;99.90;;;;;;4974947;28;20030;-67
2022/07/26 03:27:33;;;;;;;16.17;3.58;;;18.60;99.90;;;;;;4976279;28;20031;-71
2022/07/26 03:29:59;;;;;;;11.25;3.42;;;18.60;99.90;;;;;;4976375;28;20113;-68
2022/07/26 03:32:25;;;;;;;12.18;2.95;;;18.50;99.90;;;;;;4976530;28;20022;-69
2022/07/26 03:34:51;;;;;;;10.88;2.90;;;18.40;99.90;;;;;;4975980;28;20428;-70
2022/07/26 03:37:17;;;;;;;15.10;3.10;;;18.30;99.90;;;;;;4975745;28;20453;-67
2022/07/26 03:39:42;;;;;;;10.25;2.35;;;18.20;99.90;;;;;;4976021;28;20027;-68
2022/07/26 03:42:08;;;;;;;14.07;2.10;;;18.20;99.90;;;;;;4975956;28;20030;-67
2022/07/26 03:44:33;;;;;;;10.80;2.17;;;18.00;99.90;;;;;;4976041;28;20022;-67
2022/07/26 03:46:59;;;;;;;14.10;2.38;;;17.90;99.90;;;;;;4974362;28;20050;-67
2022/07/26 03:49:25;;;;;;;12.60;2.55;;;17.90;99.90;;;;;;4975918;28;20448;-68
2022/07/26 03:51:50;;;;;;;11.60;2.45;;;17.80;99.90;;;;;;4975854;28;20073;-68
2022/07/26 03:54:16;;;;;;;10.20;1.90;;;17.80;99.90;;;;;;4975514;28;20380;-67
2022/07/26 03:56:42;;;;;;;7.70;1.83;;;17.80;99.90;;;;;;4976061;28;20034;-68
2022/07/26 03:59:09;;;;;;;11.27;2.10;;;17.70;99.90;;;;;;4975863;28;20027;-68
2022/07/26 04:01:40;;;;;;;13.57;2.00;;;17.70;99.90;;;;;;4975807;28;20023;-68
2022/07/26 04:04:09;;;;;;;13.07;2.45;;;17.70;99.90;;;;;;4976001;28;20038;-69
2022/07/26 04:06:35;;;;;;;10.48;2.20;;;17.60;99.90;;;;;;4975130;28;20364;-69
2022/07/26 04:09:02;;;;;;;10.95;2.30;;;17.60;99.90;;;;;;4975573;28;20026;-67
2022/07/26 04:11:28;;;;;;;8.68;2.50;;;17.60;99.90;;;;;;4975495;28;20029;-68
2022/07/26 04:13:53;;;;;;;8.15;2.35;;;17.50;99.90;;;;;;4974661;28;20042;-68
2022/07/26 04:16:19;;;;;;;6.88;2.80;;;17.50;99.90;;;;;;4975171;28;20022;-68
2022/07/26 04:18:44;;;;;;;11.55;3.08;;;17.40;99.90;;;;;;4975500;28;20042;-68
2022/07/26 04:21:10;;;;;;;13.38;2.67;;;17.40;99.90;;;;;;4975049;28;20368;-68
2022/07/26 04:23:35;;;;;;;10.10;3.03;;;17.40;99.90;;;;;;4974795;28;20031;-69
2022/07/26 04:26:01;;;;;;;12.95;2.70;;;17.40;99.90;;;;;;4975155;28;20078;-68
2022/07/26 04:28:27;;;;;;;8.10;2.28;;;17.30;99.90;;;;;;4975459;28;20050;-70
2022/07/26 04:30:54;;;;;;;13.35;3.08;;;17.30;99.90;;;;;;4975207;28;20024;-70
2022/07/26 04:33:20;;;;;;;9.68;3.00;;;17.30;99.90;;;;;;4975095;28;20027;-68
2022/07/26 04:35:45;;;;;;;11.98;2.67;;;17.20;99.90;;;;;;4974910;28;20019;-69
2022/07/26 04:38:11;;;;;;;12.63;2.65;;;17.20;99.90;;;;;;4974883;28;20106;-73
2022/07/26 04:40:37;;;;;;;9.40;2.58;;;17.20;99.90;;;;;;4974867;28;20027;-70
2022/07/26 04:43:02;;;;;;;13.48;3.20;;;17.20;99.90;;;;;;4973429;28;20225;-70
2022/07/26 04:45:29;;;;;;;12.93;2.70;;;17.30;99.90;;;;;;4974551;28;20096;-69
2022/07/26 04:47:55;;;;;;;13.43;3.20;;;17.30;99.90;;;;;;4974876;28;20101;-70
2022/07/26 04:50:22;;;;;;;9.73;2.42;;;17.30;99.90;;;;;;4974490;28;20073;-70
2022/07/26 04:52:49;;;;;;;11.43;2.60;;;17.30;99.90;;;;;;4974770;28;20027;-68
2022/07/26 04:55:15;;;;;;;12.35;2.60;;;17.30;99.90;;;;;;4974656;28;20031;-68
2022/07/26 04:57:42;;;;;;;13.48;2.55;;;17.30;99.90;;;;;;4974552;28;20038;-69
2022/07/26 05:00:10;;;;;;;16.35;3.22;;;17.30;99.90;;;;;;4974505;28;20026;-72
2022/07/26 05:02:36;;;;;;;9.85;2.45;;;17.30;99.90;;;;;;4974546;28;20022;-70
2022/07/26 05:05:03;;;;;;;14.40;3.08;;;17.30;99.90;;;;;;4974241;28;20457;-69
2022/07/26 05:07:39;;;;;;;11.15;2.30;;;17.40;99.90;;;;;;4974665;28;20023;-72
2022/07/26 05:10:05;;;;;;;11.55;2.70;;;17.30;99.90;;;;;;4974877;28;20162;-69
2022/07/26 05:12:31;;;;;;;12.75;2.47;;;17.40;99.90;;;;;;4974648;28;20232;-69
2022/07/26 05:14:56;;;;;;;14.95;2.72;;;17.40;99.90;;;;;;4974623;28;20496;-71
2022/07/26 05:17:22;;;;;;;8.00;2.00;;;17.50;99.90;;;;;;4972849;28;20463;-69
2022/07/26 05:19:47;;;;;;;9.15;2.50;;;17.50;99.90;;;;;;4974553;28;20105;-69
2022/07/26 05:22:13;;;;;;;9.27;1.77;;;17.50;99.90;;;;;;4974052;28;20031;-68
2022/07/26 05:24:38;;;;;;;9.00;1.80;;;17.60;99.90;;;;;;4973947;28;20166;-72
2022/07/26 05:27:04;;;;;;;9.13;2.28;;;17.60;99.90;;;;;;4974271;28;20073;-74
2022/07/26 05:29:29;;;;;;;11.05;1.65;;;17.50;99.90;;;;;;4973910;28;20112;-71
2022/07/26 05:31:55;;;;;;;8.68;1.90;;;17.50;99.90;;;;;;4972696;28;20063;-68
2022/07/26 05:34:22;;;;;;;9.40;1.75;;;17.50;99.90;;;;;;4974076;28;20026;-68
2022/07/26 05:36:48;;;;;;;13.35;2.00;;;17.60;99.90;;;;;;4974140;28;20015;-67
2022/07/26 05:39:13;;;;;;;7.13;1.60;;;17.60;99.90;;;;;;4974185;28;20042;-69
2022/07/26 05:41:39;;;;;;;7.80;1.55;;;17.70;99.90;;;;;;4973879;28;20465;-73
2022/07/26 05:44:04;;;;;;;6.65;2.20;;;17.70;99.90;;;;;;4974090;28;20038;-68
2022/07/26 05:46:30;;;;;;;6.13;1.63;;;17.80;99.90;;;;;;4973456;28;20542;-67
2022/07/26 05:48:55;;;;;;;9.82;2.63;;;17.70;99.90;;;;;;4973918;28;20074;-70
2022/07/26 05:51:21;;;;;;;6.65;1.15;;;17.70;99.90;;;;;;4974359;28;20042;-71
2022/07/26 05:53:46;;;;;;;7.43;2.42;;;17.70;99.90;;;;;;4973530;28;20027;-71
2022/07/26 05:56:12;;;;;;;6.25;1.98;;;17.70;99.90;;;;;;4973790;28;20029;-68
2022/07/26 05:58:37;;;;;;;8.40;2.50;;;17.70;99.90;;;;;;4972532;28;20018;-71
2022/07/26 06:01:03;;;;;;;5.72;1.40;;;17.60;99.90;;;;;;4973816;28;20088;-71
2022/07/26 06:03:30;;;;;;;4.55;1.75;;;17.60;99.90;;;;;;4973514;28;20066;-71
2022/07/26 06:05:57;;;;;;;4.50;1.27;;;17.60;99.90;;;;;;4973569;28;20081;-69
2022/07/26 06:08:24;;;;;;;7.97;1.30;;;17.70;99.90;;;;;;4973612;28;20085;-68
2022/07/26 06:10:51;;;;;;;5.32;1.38;;;17.70;99.90;;;;;;4973740;28;20022;-70
2022/07/26 06:13:17;;;;;;;6.75;1.42;;;17.80;99.90;;;;;;4973344;28;20031;-68
2022/07/26 06:15:43;;;;;;;6.93;1.70;;;17.90;99.90;;;;;;4973767;28;20165;-70
2022/07/26 06:18:09;;;;;;;6.97;1.90;;;17.90;99.90;;;;;;4973660;28;20027;-72
2022/07/26 06:20:39;;;;;;;12.70;1.55;;;17.90;99.90;;;;;;4973626;28;20027;-68
2022/07/26 06:23:05;;;;;;;11.55;3.05;;;17.80;99.90;;;;;;4973345;28;20466;-69
2022/07/26 06:25:30;;;;;;;8.13;1.92;;;17.70;99.90;;;;;;4973664;28;20031;-67
2022/07/26 06:27:56;;;;;;;11.77;3.65;;;17.70;99.90;;;;;;4973581;28;20027;-70
2022/07/26 06:30:21;;;;;;;5.75;1.38;;;17.80;99.90;;;;;;4973658;28;20337;-70
2022/07/26 06:32:47;;;;;;;7.80;2.20;;;17.80;99.90;;;;;;4968925;28;20436;-69
2022/07/26 06:35:13;;;;;;;7.80;1.83;;;17.90;99.90;;;;;;4973125;28;20034;-70
2022/07/26 06:37:40;;;;;;;4.40;1.33;;;17.80;99.90;;;;;;4976097;28;20026;-69
2022/07/26 06:40:07;;;;;;;5.43;1.10;;;17.80;99.90;;;;;;4977160;28;20453;-69
2022/07/26 06:42:33;;;;;;;9.23;1.90;;;17.60;99.90;;;;;;4976675;28;20027;-68
2022/07/26 06:44:59;;;;;;;9.50;1.73;;;17.50;99.90;;;;;;4975080;28;20062;-69
2022/07/26 06:47:25;;;;;;;12.00;2.97;;;17.50;99.90;;;;;;4977250;28;20130;-69
2022/07/26 06:49:51;;;;;;;9.55;1.35;;;17.40;99.90;;;;;;4976971;28;20097;-69
2022/07/26 06:52:16;;;;;;;8.95;2.10;;;17.40;99.90;;;;;;4977571;28;20454;-69
2022/07/26 06:54:42;;;;;;;3.92;0.95;;;17.40;99.90;;;;;;4975780;28;20387;-68
2022/07/26 06:57:08;;;;;;;8.88;1.70;;;17.40;99.90;;;;;;4975572;28;20027;-68
2022/07/26 06:59:33;;;;;;;9.88;3.17;;;17.50;99.90;;;;;;4976815;28;20097;-69
2022/07/26 07:02:00;;;;;;;7.32;1.48;;;17.60;99.90;;;;;;4975852;28;20033;-68
2022/07/26 07:04:31;;;;;;;4.80;1.25;;;17.70;99.90;;;;;;4975539;28;20125;-70
2022/07/26 07:07:01;;;;;;;10.77;1.80;;;17.90;99.90;;;;;;4975662;28;20023;-69
2022/07/26 07:09:28;;;;;;;4.45;1.02;;;18.10;99.90;;;;;;4977037;28;20029;-69
2022/07/26 07:11:54;;;;;;;5.20;1.40;;;18.40;99.90;;;;;;4976301;28;20113;-70
2022/07/26 07:14:19;;;;;;;7.15;2.00;;;18.90;99.90;;;;;;4975525;28;20027;-71
2022/07/26 07:16:45;;;;;;;6.38;2.47;;;19.50;99.90;;;;;;4976873;28;20029;-71
2022/07/26 07:19:11;;;;;;;5.22;1.40;;;20.00;99.90;;;;;;4976464;28;20086;-70
2022/07/26 07:21:36;;;;;;;4.32;1.40;;;20.30;99.90;;;;;;4976695;28;20441;-69
2022/07/26 07:24:02;;;;;;;7.43;1.60;;;20.50;99.90;;;;;;4976399;28;20031;-70
2022/07/26 07:26:28;;;;;;;4.40;0.90;;;20.60;99.90;;;;;;4973987;28;20023;-69
2022/07/26 07:28:53;;;;;;;7.47;1.90;;;20.50;99.90;;;;;;4976360;28;20034;-69
2022/07/26 07:31:19;;;;;;;6.65;1.25;;;20.40;99.90;;;;;;4976016;28;20027;-69
2022/07/26 07:33:44;;;;;;;8.35;1.60;;;20.50;99.90;;;;;;4976411;28;20106;-69
2022/07/26 07:36:10;;;;;;;2.88;0.77;;;20.90;99.90;;;;;;4974959;28;20019;-72
2022/07/26 07:38:35;;;;;;;6.07;2.17;;;21.40;99.90;;;;;;4976429;28;20433;-69
2022/07/26 07:41:01;;;;;;;4.90;1.20;;;22.00;99.90;;;;;;4975672;28;20094;-73
2022/07/26 07:43:26;;;;;;;9.80;2.15;;;22.40;99.90;;;;;;4975966;28;20444;-69
2022/07/26 07:45:52;;;;;;;10.35;2.35;;;22.50;99.90;;;;;;4975933;28;20051;-70
2022/07/26 07:48:17;;;;;;;7.18;1.25;;;22.40;99.90;;;;;;4974834;28;20090;-68
2022/07/26 07:50:43;;;;;;;4.40;1.25;;;22.20;99.90;;;;;;4975949;28;20043;-68
2022/07/26 07:53:09;;;;;;;7.50;1.77;;;21.80;99.90;;;;;;4975882;28;20453;-72
2022/07/26 07:55:34;;;;;;;5.53;1.15;;;21.40;99.90;;;;;;4975800;28;20030;-70
2022/07/26 07:58:00;;;;;;;5.05;1.42;;;21.20;99.90;;;;;;4975624;28;20086;-69
2022/07/26 08:00:26;;;;;;;4.05;0.90;;;21.00;99.90;;;;;;4973984;28;20015;-69
2022/07/26 08:02:52;;;;;;;6.30;1.90;;;20.90;99.90;;;;;;4974732;28;20413;-68
2022/07/26 08:05:18;;;;;;;5.30;1.00;;;20.90;99.90;;;;;;4975105;28;20026;-68
2022/07/26 08:07:43;;;;;;;6.20;1.25;;;21.10;99.90;;;;;;4975131;28;20042;-69
2022/07/26 08:10:09;;;;;;;4.85;0.70;;;21.60;99.90;;;;;;4975043;28;20022;-71
2022/07/26 08:12:35;;;;;;;4.28;1.23;;;22.40;99.90;;;;;;4974662;28;20050;-72
2022/07/26 08:15:01;;;;;;;5.97;1.35;;;23.30;99.90;;;;;;4975409;28;20027;-70
2022/07/26 08:17:27;;;;;;;7.53;1.10;;;24.10;99.00;;;;;;4975639;28;20030;-71
2022/07/26 08:19:52;;;;;;;4.18;1.02;;;25.10;99.40;;;;;;4975551;28;20027;-69
2022/07/26 08:22:18;;;;;;;3.17;1.05;;;26.10;96.90;;;;;;4975743;28;20023;-69
2022/07/26 08:24:45;;;;;;;4.60;1.20;;;26.90;94.50;;;;;;4975296;28;20097;-69
2022/07/26 08:27:12;;;;;;;10.13;2.00;;;27.50;93.70;;;;;;4975255;28;20026;-68
2022/07/26 08:29:37;;;;;;;5.07;1.30;;;27.70;92.80;;;;;;4975326;28;20022;-68
2022/07/26 08:32:03;;;;;;;8.98;1.30;;;27.20;93.10;;;;;;4975252;28;20035;-70
2022/07/26 08:34:29;;;;;;;5.90;0.95;;;26.60;93.50;;;;;;4975262;28;20041;-69
2022/07/26 08:36:54;;;;;;;3.33;0.90;;;26.10;94.10;;;;;;4975176;28;20022;-67
2022/07/26 08:39:20;;;;;;;5.22;1.33;;;25.80;93.80;;;;;;4975106;28;20463;-71
2022/07/26 08:41:45;;;;;;;4.95;0.90;;;26.00;94.50;;;;;;4975049;28;20453;-66
2022/07/26 08:44:11;;;;;;;4.47;0.85;;;26.10;93.30;;;;;;4974782;28;20043;-67
2022/07/26 08:46:39;;;;;;;5.05;1.23;;;25.80;93.80;;;;;;4974853;28;20047;-70
2022/07/26 08:49:06;;;;;;;5.03;1.13;;;25.30;93.70;;;;;;4974994;28;20023;-67
2022/07/26 08:51:33;;;;;;;3.60;0.88;;;24.90;94.70;;;;;;4974604;28;20042;-67
2022/07/26 08:54:00;;;;;;;6.10;1.35;;;24.40;94.80;;;;;;4974927;28;20114;-70
2022/07/26 08:56:26;;;;;;;5.90;1.45;;;23.90;95.50;;;;;;4974653;28;20038;-66
2022/07/26 08:58:52;;;;;;;3.70;1.00;;;23.90;96.40;;;;;;4974484;28;20022;-66
2022/07/26 09:01:18;;;;;;;3.00;0.55;;;24.50;95.60;;;;;;4974718;28;20034;-70
2022/07/26 09:03:44;;;;;;;3.10;1.00;;;25.50;92.70;;;;;;4974638;28;20031;-67
2022/07/26 09:06:18;;;;;;;6.05;1.40;;;26.40;92.30;;;;;;4974791;28;20067;-68
2022/07/26 09:08:45;;;;;;;6.97;1.17;;;27.20;91.90;;;;;;4974362;28;20050;-67
2022/07/26 09:11:22;;;;;;;8.52;1.27;;;27.60;90.40;;;;;;4974665;28;20061;-68
2022/07/26 09:13:54;;;;;;;6.50;1.13;;;27.40;90.60;;;;;;4974507;28;20027;-68
2022/07/26 09:16:19;;;;;;;8.50;1.13;;;27.10;91.30;;;;;;4974684;28;20014;-70
2022/07/26 09:18:45;;;;;;;4.38;1.13;;;26.50;91.50;;;;;;4974545;28;20027;-67
2022/07/26 09:21:35;;;;;;;7.15;1.15;;;25.80;91.70;;;;;;4974394;28;20408;-67
2022/07/26 09:24:01;;;;;;;7.47;1.23;;;24.90;92.60;;;;;;4974381;28;20038;-72
2022/07/26 09:26:27;;;;;;;5.32;0.85;;;24.20;93.70;;;;;;4974390;28;20093;-67
2022/07/26 09:29:05;;;;;;;5.82;1.00;;;23.80;94.40;;;;;;4974376;28;20411;-67
2022/07/26 09:31:31;;;;;;;5.88;1.08;;;23.80;94.60;;;;;;4974015;28;20033;-71
2022/07/26 09:33:58;;;;;;;5.10;1.00;;;24.00;94.10;;;;;;4973998;28;20376;-66
2022/07/26 09:36:24;;;;;;;6.45;0.90;;;24.30;94.00;;;;;;4974148;28;20026;-66
2022/07/26 09:38:52;;;;;;;6.05;0.93;;;24.70;93.30;;;;;;4974179;28;20715;-65
2022/07/26 09:41:41;;;;;;;4.88;1.45;;;24.80;92.30;;;;;;4974132;28;20080;-66
2022/07/26 09:44:20;;;;;;;5.65;1.27;;;24.60;93.10;;;;;;4972409;28;20436;-67
2022/07/26 09:46:55;;;;;;;9.32;1.33;;;24.60;93.10;;;;;;4973682;28;20089;-68
2022/07/26 09:49:21;;;;;;;6.70;1.30;;;24.70;93.30;;;;;;4974065;28;20449;-65
2022/07/26 09:51:52;;;;;;;7.60;1.23;;;24.80;93.10;;;;;;4974176;28;20033;-66
2022/07/26 09:54:32;;;;;;;5.95;1.20;;;24.90;92.80;;;;;;4974089;28;20081;-70
2022/07/26 09:56:58;;;;;;;6.30;1.25;;;24.70;93.20;;;;;;4974030;28;20061;-66
2022/07/26 09:59:25;;;;;;;11.30;1.90;;;24.40;93.70;;;;;;4973928;28;20062;-66
2022/07/26 10:01:53;;;;;;;9.88;1.88;;;24.10;94.00;;;;;;4973504;28;20568;-67
2022/07/26 10:04:20;;;;;;;10.38;1.95;;;23.70;94.50;;;;;;4973670;28;20034;-70
2022/07/26 10:06:46;;;;;;;7.68;1.85;;;23.60;95.00;;;;;;4973670;28;20023;-67
2022/07/26 10:09:13;;;;;;;10.25;1.95;;;23.40;95.30;;;;;;4973729;28;20155;-67
2022/07/26 10:11:55;;;;;;;9.18;1.45;;;23.30;94.70;;;;;;4972516;28;20050;-67
2022/07/26 10:14:37;;;;;;;6.88;2.20;;;23.30;94.70;;;;;;4967353;28;20417;-68
2022/07/26 10:17:30;;;;;;;8.10;2.00;;;23.30;94.30;;;;;;4957190;28;20031;-67
2022/07/26 10:20:01;;;;;;;9.70;1.17;;;23.50;93.90;;;;;;4973721;28;20062;-70
2022/07/26 10:22:40;;;;;;;10.25;1.77;;;23.60;93.10;;;;;;4971749;28;20533;-69
2022/07/26 10:25:34;;;;;;;11.13;1.90;;;23.70;92.60;;;;;;4972461;28;20034;-66
2022/07/26 10:28:00;;;;;;;5.85;1.20;;;23.90;92.20;;;;;;4973025;28;20384;-69
2022/07/26 10:30:27;;;;;;;7.00;1.35;;;24.00;91.90;;;;;;4973414;28;20022;-68
2022/07/26 10:32:57;;;;;;;8.80;1.55;;;24.30;91.30;;;;;;4973644;28;20046;-66
2022/07/26 10:35:43;;;;;;;7.28;1.30;;;24.70;90.90;;;;;;4973566;28;20058;-69
2022/07/26 10:38:12;;;;;;;5.85;1.48;;;25.20;90.80;;;;;;4973178;28;20465;-67
2022/07/26 10:40:54;;;;;;;8.93;1.80;;;26.00;88.30;;;;;;4973598;28;20027;-66
2022/07/26 10:43:19;;;;;;;;;;;26.70;86.50;;;;;;4974204;28;20039;-67
2022/07/26 10:45:45;;;;;;;3.95;1.20;;;27.50;84.00;;;;;;4973302;28;19929;-67
2022/07/26 10:48:17;;;;;;;5.97;1.20;;;27.90;82.40;;;;;;4973533;28;20033;-67
2022/07/26 10:50:45;;;;;;;9.80;2.03;;;28.00;82.20;;;;;;4973543;28;20026;-64
2022/07/26 10:53:18;;;;;;;8.23;1.42;;;28.20;82.60;;;;;;4973418;28;20027;-66
2022/07/26 10:55:54;;;;;;;8.10;1.60;;;28.60;81.20;;;;;;4973337;28;20018;-69
2022/07/26 10:58:22;;;;;;;7.40;1.75;;;28.50;80.00;;;;;;4973538;28;20026;-66
2022/07/26 11:01:01;;;;;;;5.90;1.60;;;28.20;79.70;;;;;;4973584;28;20029;-67
2022/07/26 11:03:41;;;;;;;8.23;1.52;;;27.80;80.90;;;;;;4973274;28;20038;-66
2022/07/26 11:06:11;;;;;;;7.00;1.40;;;27.80;82.20;;;;;;4973409;28;20026;-66
2022/07/26 11:08:37;;;;;;;6.28;1.27;;;28.80;79.20;;;;;;4973204;28;20030;-65
2022/07/26 11:11:02;;;;;;;7.63;1.48;;;30.40;78.20;;;;;;4972974;28;20421;-67
2022/07/26 11:13:31;;;;;;;8.82;1.85;;;31.80;75.00;;;;;;4970825;28;20372;-67
2022/07/26 11:16:09;;;;;;;7.65;1.23;;;32.90;70.90;;;;;;4971928;28;20046;-66
2022/07/26 11:18:37;;;;;;;6.35;1.70;;;33.90;69.60;;;;;;4972526;28;20412;-66
2022/07/26 11:21:14;;;;;;;4.78;1.33;;;34.80;66.20;;;;;;4973115;28;20055;-66
2022/07/26 11:23:45;;;;;;;6.50;1.02;;;35.50;63.80;;;;;;4974616;28;20033;-66
2022/07/26 11:26:13;;;;;;;8.23;1.30;;;36.20;62.90;;;;;;4975936;28;20121;-70
2022/07/26 11:28:46;;;;;;;5.00;1.50;;;36.50;60.60;;;;;;4976390;28;20038;-67
2022/07/26 11:31:12;;;;;;;4.28;1.20;;;36.40;60.00;;;;;;4976569;28;20027;-70
2022/07/26 11:33:40;;;;;;;6.30;1.75;;;35.60;59.80;;;;;;4976312;28;20369;-66
2022/07/26 11:36:06;;;;;;;4.72;1.20;;;34.30;60.80;;;;;;4956829;28;20023;-66
2022/07/26 11:38:48;;;;;;;4.78;1.10;;;33.60;61.50;;;;;;4956659;28;20030;-66
2022/07/26 11:41:17;;;;;;;;;;;32.80;60.90;;;;;;4957214;28;20060;-66
2022/07/26 11:43:43;;;;;;;4.10;1.25;;;32.80;61.60;;;;;;4956845;28;19913;-66
2022/07/26 11:46:08;;;;;;;5.95;1.52;;;33.10;61.60;;;;;;4956722;28;20043;-66
2022/07/26 11:48:34;;;;;;;4.25;1.25;;;33.50;61.10;;;;;;4957416;28;20488;-66
2022/07/26 11:51:10;;;;;;;5.50;1.33;;;34.30;58.90;;;;;;4956423;28;20023;-66
2022/07/26 11:53:36;;;;;;;6.15;1.52;;;34.30;58.80;;;;;;4956639;28;20025;-66
2022/07/26 11:56:17;;;;;;;4.35;1.23;;;34.30;58.80;;;;;;4969934;28;20065;-68
2022/07/26 11:58:45;;;;;;;3.45;0.90;;;34.20;59.00;;;;;;4975503;28;20021;-66
2022/07/26 12:01:13;;;;;;;3.63;1.20;;;34.40;58.00;;;;;;4976389;28;20034;-66
2022/07/26 12:03:42;;;;;;;8.48;1.30;;;34.70;57.90;;;;;;4975717;28;20129;-66
2022/07/26 12:06:11;;;;;;;5.95;1.42;;;35.00;57.40;;;;;;4975362;28;20031;-66
2022/07/26 12:08:46;;;;;;;5.85;1.13;;;34.70;56.60;;;;;;4975578;28;20082;-66
2022/07/26 12:11:13;;;;;;;3.92;1.08;;;34.30;56.70;;;;;;4975698;28;20453;-67
2022/07/26 12:13:59;;;;;;;6.18;1.30;;;33.30;57.10;;;;;;4975686;28;20453;-64
2022/07/26 12:16:40;;;;;;;4.90;1.10;;;31.90;58.90;;;;;;4975731;28;20109;-67
2022/07/26 12:19:16;;;;;;;7.73;1.53;;;31.30;60.80;;;;;;4975947;28;20022;-71
2022/07/26 12:22:12;;;;;;;5.80;1.30;;;31.90;60.00;;;;;;4975750;28;20029;-66
2022/07/26 12:24:55;;;;;;;2.53;0.65;;;32.90;59.10;;;;;;4971650;28;20050;-71
2022/07/26 12:27:29;;;;;;;5.95;0.85;;;33.90;57.60;;;;;;4975501;28;20242;-70
2022/07/26 12:30:14;;;;;;;3.95;1.10;;;34.40;56.90;;;;;;4975368;28;20065;-67
2022/07/26 12:32:42;;;;;;;5.70;1.65;;;34.60;56.60;;;;;;4975312;28;20372;-67
2022/07/26 12:35:10;;;;;;;6.20;1.20;;;35.00;55.40;;;;;;4974411;28;20023;-66
2022/07/26 12:37:44;;;;;;;5.18;1.50;;;35.60;55.20;;;;;;4974903;28;20058;-69
2022/07/26 12:40:18;;;;;;;5.20;1.15;;;35.80;55.00;;;;;;4975560;28;20031;-69
2022/07/26 12:42:55;;;;;;;4.45;1.38;;;36.20;54.00;;;;;;4975072;28;20105;-68
2022/07/26 12:45:26;;;;;;;4.82;1.27;;;36.00;54.00;;;;;;4974937;28;20420;-67
2022/07/26 12:47:53;;;;;;;6.28;1.60;;;36.10;54.10;;;;;;4974694;28;20043;-67
2022/07/26 12:50:21;;;;;;;5.10;0.98;;;36.10;53.10;;;;;;4974360;28;20078;-68
2022/07/26 12:52:47;;;;;;;3.58;1.15;;;35.90;53.00;;;;;;4974817;28;20027;-66